« 富山駐屯地創立57周年記念行事 2019/9/8 sun | トップページ | 趣味的航空路誌改訂情報 2019/9/12 thu »

2019/09/10

航空祭前 小松飛行場 2019/9/10 tue

9月になったと思ったら、あれよあれよと月日は過ぎ、もうこの週末は、小松航空祭。朝早くから、ちょっと覗きに行ってきました。(長編注意)

RJNK 092200Z VRB02KT 9999 FEW060 26/22 Q1014

20190910_rjnk_00h584593

58-4593 UH-60J KOMATSU-ARS FUJIN41

準備してると、もう訓練に飛び立ってきました。

20190910_rjnk_01f328087

この日は最初から航空祭予行

20190910_rjnk_02f328087

306SQによるパッカーン

20190910_rjnk_03f328087

32-8087 F-15DJ 306SQ J21

20190910_rjnk_04f15

ハイレイトに見とれていたら、青組さんが連続パッカーン

20190910_rjnk_05f15

この時間は雲がかかって暗い

20190910_rjnk_06ja80an

ANA752 RJNK-RJTT JA80AN B737-881

20190910_rjnk_07ja348j

JAL182 RJNK-RJTT JA348J B737-846

RJNK 092300Z VRB02KT 9999 FEW060 BKN080 27/23 Q1014

20190910_rjnk_08ja05rj

IBX62 RJNK-RJSS JA05RJ CRJ-702ER

20190910_rjnk_09f15

集合して4機編隊で航過

20190910_rjnk_10f228936

20190910_rjnk_11f228936

この組の機体は
22-8936 32-8087 306SQ J21
72-8882 52-8859 303SQ M01

20190910_rjnk_12f328087

折り返して、北から

20190910_rjnk_13f328087

20190910_rjnk_14ja128d

JA128D B429 NNK 石川県ドクターヘリご出勤

20190910_rjnk_15h584593

朝一のUHさんが帰ってきて、T/G

20190910_rjnk_16f728882

オープニングフライトは、303SQマイナートラブルで終了

20190910_rjnk_17f328087

#087 残りの306SQは帰ってきて、コンバットピッチ

20190910_rjnk_18f328087

20190910_rjnk_19ja657j

JAL183 RJTT-RJNK JA657J B767-346ER

20190910_rjnk_20f528952

ここから機動飛行

20190910_rjnk_21f528952

52-8952 F-15J 306SQ J23

20190910_rjnk_22f328821

ぬわんと、306、303混成の展示

20190910_rjnk_23f328821

32-8821 F-15J 303SQ M03

20190910_rjnk_24f328821

湿度が高いので、もわもわタイム

20190910_rjnk_25f328821

#821

20190910_rjnk_26f328821

#952

20190910_rjnk_27f528952

20190910_rjnk_28f328821

20190910_rjnk_29f528952

20190910_rjnk_30f528952

20190910_rjnk_31f528952

羽衣飛行隊でした。

RJNK 092300Z VRB02KT 9999 FEW060 BKN080 27/23 Q1014


20190910_rjnk_32ja307k

ANA1231 RJNK-RJFF JA307K B737-54K

20190910_rjnk_33ja604a

ANA751 RJTT-RJNK JA604A B767-381ER

20190910_rjnk_34ja893f

JA893F B412EP 石川県防災航空隊 ファイアーアタック付き

20190910_rjnk_35u023027

02-3027 U-125A KOMATSU-ARS RAIJIN42

20190910_rjnk_36h584593

58-4593 UH-60J KOMATSU-ARS FUJIN43

20190910_rjnk_37u023027

物資投下

20190910_rjnk_38h584593

かろうじて、救難展示が見えました。

20190910_rjnk_39u023027

ブレイクして救難展示は終了。

20190910_rjnk_40e2c

今日は、岐阜はHOT 音は聞こえで機体は見えずでしたが、エンルートをブーンとE2Cが西進して行きました。

RJNK 100100Z VRB04KT 9999 FEW060 SCT180 30/23 Q1014

20190910_rjnk_41f428947

42-8947 F-15J 306SQ J31

20190910_rjnk_42f928912

92-8912 F-15J 306SQ J32

20190910_rjnk_43f028916

02-8916 F-15J 306SQ J33

20190910_rjnk_44f028916

この編隊は、通常訓練

20190910_rjnk_45f928096

出ました新色

20190910_rjnk_46f928096

92-8096 F-15DJ AGR BLACK13

20190910_rjnk_47f728090

72-8090 F-15DJ AGR BLACK14

20190910_rjnk_48f728090

AGRの機動飛行の機体

20190910_rjnk_49f328058

32-8058 F-15DJ 303SQ M01

20190910_rjnk_50f328819

32-8819 F-15J 303SQ M02

20190910_rjnk_51f728882

72-8882 F-15J 303SQ M03

20190910_rjnk_52f928069

92-8069 F-15DJ 306SQ J25

20190910_rjnk_53f028914

02-8914 F-15J 306SQ J26

20190910_rjnk_54f328087

32-8087 F-15DJ 306SQ J27

20190910_rjnk_55f928070

92-8070 F-15DJ AGR E11

20190910_rjnk_56f928070

20190910_rjnk_57f828093

82-8093 F-15DJ AGR E12

20190910_rjnk_58f828093

奥さん初めて見ました。ここまで大編隊の離陸。

20190910_rjnk_59f928096

AGRの機動開始 #096

20190910_rjnk_60f728090

20190910_rjnk_61f728090

#090

20190910_rjnk_62f928096

20190910_rjnk_63f928096

20190910_rjnk_64f728090

出ました片肺AB

20190910_rjnk_65f728090

もう一回廻って、こちらはノーマル

20190910_rjnk_66ja604a

ANA754 RJNK-RJTT JA604A B767-381ER

20190910_rjnk_67f928096

20190910_rjnk_68f728090

#090 のローアプローチ

20190910_rjnk_69f728090

20190910_rjnk_70f728090

20190910_rjnk_71f15x8

大編隊の最初の航過

20190910_rjnk_72f15x8

303 32-8058 32-8819 72-8882
306 92-8069 02-8914 32-8087
AGR 92-8070 82-8093

20190910_rjnk_73f728090

再びAGRが機動

20190910_rjnk_74f728090

20190910_rjnk_75f728090

20190910_rjnk_76f928096

20190910_rjnk_77f728090

20190910_rjnk_78f728090

20190910_rjnk_79f928096

20190910_rjnk_80f15x8

大編隊二回目の航過

20190910_rjnk_81f328817

32-8817 F-15J 303SQ M05

20190910_rjnk_82f228938

22-8938 F-15J 303SQ M06

合間に通常訓練

20190910_rjnk_83f928096

AGRの機動飛行はこれにて終了

RJNK 100200Z 32007KT 9999 FEW030 31/24 Q1014

20190910_rjnk_84ja05rj

IBS85 RJNK-RJFF JA05RJ CRJ-702ER

20190910_rjnk_85ja348j

JAL186 RJNK-RJTT JA348J B737-846

20190910_rjnk_86f328817

#817 先ほどの訓練機が帰ってきてT/G

20190910_rjnk_87f228938

#938

20190910_rjnk_88f228938

これにて午前中のフライトは終了。豊作で小生は離脱。

RJNT 100400Z 01009KT 9999 FEW030 34/23 Q1013

【おまけ:本日のお船】

20190910_shinminato_90tsurugi

帰投道中に新湊漁港に入港する富山県漁業取締船「つるぎ」

20190910_shinminato_91tsurugi

ウォータージェットの逆進で回転中

20190910_shinminato_92tsurugi

後進して船尾を岸壁に向けて停泊します。

 

|

« 富山駐屯地創立57周年記念行事 2019/9/8 sun | トップページ | 趣味的航空路誌改訂情報 2019/9/12 thu »

小松飛行場」カテゴリの記事

コメント

コメントを書く



(ウェブ上には掲載しません)


コメントは記事投稿者が公開するまで表示されません。



« 富山駐屯地創立57周年記念行事 2019/9/8 sun | トップページ | 趣味的航空路誌改訂情報 2019/9/12 thu »